createdAt,value
2018-08-23T00:00:43.420Z,6.10
2018-08-23T00:03:17.174Z,6.17
2018-08-23T00:05:50.983Z,5.60
2018-08-23T00:08:19.956Z,5.43
2018-08-23T00:10:49.170Z,5.57
2018-08-23T00:13:17.614Z,5.55
2018-08-23T00:15:46.015Z,5.67
2018-08-23T00:18:14.476Z,5.60
2018-08-23T00:20:42.822Z,5.97
2018-08-23T00:23:11.257Z,5.08
2018-08-23T00:25:39.825Z,5.50
2018-08-23T00:28:08.643Z,5.80
2018-08-23T00:30:37.238Z,5.60
2018-08-23T00:33:06.130Z,5.22
2018-08-23T00:35:38.146Z,5.30
2018-08-23T00:38:07.414Z,4.80
2018-08-23T00:40:44.503Z,5.40
2018-08-23T00:43:14.225Z,6.03
2018-08-23T00:45:42.627Z,5.33
2018-08-23T00:48:11.046Z,5.70
2018-08-23T00:51:00.188Z,6.28
2018-08-23T00:53:30.065Z,6.10
2018-08-23T00:56:12.321Z,5.85
2018-08-23T00:58:47.906Z,5.90
2018-08-23T01:01:16.362Z,6.23
2018-08-23T01:03:45.083Z,6.40
2018-08-23T01:06:19.469Z,6.10
2018-08-23T01:08:47.929Z,6.23
2018-08-23T01:11:16.282Z,5.93
2018-08-23T01:13:45.154Z,6.30
2018-08-23T01:16:14.480Z,6.30
2018-08-23T01:18:43.124Z,6.22
2018-08-23T01:21:11.924Z,6.28
2018-08-23T01:23:42.248Z,6.23
2018-08-23T01:26:10.667Z,5.90
2018-08-23T01:28:39.191Z,6.00
2018-08-23T01:31:21.850Z,6.30
2018-08-23T01:33:53.580Z,6.20
2018-08-23T01:36:28.143Z,5.93
2018-08-23T01:38:56.531Z,6.30
2018-08-23T01:41:24.985Z,5.90
2018-08-23T01:43:53.358Z,6.30
2018-08-23T01:46:25.877Z,6.30
2018-08-23T01:48:54.349Z,6.60
2018-08-23T01:51:22.862Z,6.63
2018-08-23T01:53:51.260Z,6.20
2018-08-23T01:56:19.659Z,6.00
2018-08-23T01:58:48.022Z,6.37
2018-08-23T02:01:17.674Z,6.40
2018-08-23T02:03:46.439Z,6.77
2018-08-23T02:06:14.925Z,6.30
2018-08-23T02:08:43.998Z,6.13
2018-08-23T02:11:12.403Z,6.20
2018-08-23T02:13:40.794Z,6.60
2018-08-23T02:16:09.187Z,6.43
2018-08-23T02:18:37.627Z,6.03
2018-08-23T02:21:10.401Z,6.33
2018-08-23T02:23:52.169Z,6.80
2018-08-23T02:26:20.619Z,6.43
2018-08-23T02:28:50.052Z,6.27
2018-08-23T02:31:18.563Z,6.17
2018-08-23T02:33:46.937Z,6.37
2018-08-23T02:36:16.166Z,6.97
2018-08-23T02:38:50.610Z,6.53
2018-08-23T02:41:19.092Z,6.50
2018-08-23T02:43:47.822Z,6.73
2018-08-23T02:46:16.509Z,6.70
2018-08-23T02:48:45.252Z,6.70
2018-08-23T02:51:13.683Z,6.87
2018-08-23T02:53:44.351Z,6.70
2018-08-23T02:56:15.384Z,6.60
2018-08-23T02:58:56.223Z,6.83
2018-08-23T03:01:25.813Z,6.43
2018-08-23T03:04:06.218Z,6.70
2018-08-23T03:06:38.827Z,6.63
2018-08-23T03:09:08.146Z,6.80
2018-08-23T03:11:37.424Z,7.07
2018-08-23T03:14:06.355Z,6.77
2018-08-23T03:16:47.853Z,6.70
2018-08-23T03:19:16.476Z,6.90
2018-08-23T03:21:45.122Z,7.20
2018-08-23T03:24:13.768Z,7.00
2018-08-23T03:26:42.245Z,7.50
2018-08-23T03:29:10.691Z,7.00
2018-08-23T03:31:39.111Z,6.80
2018-08-23T03:34:07.472Z,7.00
2018-08-23T03:36:35.867Z,7.20
2018-08-23T03:39:05.863Z,7.03
2018-08-23T03:41:34.364Z,7.10
2018-08-23T03:44:02.766Z,7.27
2018-08-23T03:46:35.626Z,6.67
2018-08-23T03:49:06.029Z,6.90
2018-08-23T03:51:37.659Z,6.60
2018-08-23T03:54:06.022Z,7.03
2018-08-23T03:56:34.454Z,6.83
2018-08-23T03:59:02.952Z,7.53
2018-08-23T04:01:31.339Z,7.33
2018-08-23T04:04:00.838Z,6.57
2018-08-23T04:06:33.322Z,7.20
2018-08-23T04:09:01.895Z,7.40
2018-08-23T04:11:30.301Z,7.40
2018-08-23T04:13:58.648Z,7.80
2018-08-23T04:16:29.034Z,7.37
2018-08-23T04:18:57.650Z,7.03
2018-08-23T04:21:26.692Z,7.60
2018-08-23T04:23:55.087Z,7.07
2018-08-23T04:26:23.895Z,6.53
2018-08-23T04:28:52.284Z,7.50
2018-08-23T04:31:20.668Z,7.40
2018-08-23T04:33:49.154Z,7.50
2018-08-23T04:36:27.806Z,7.00
2018-08-23T04:39:07.023Z,7.27
2018-08-23T04:41:35.470Z,7.03
2018-08-23T04:44:09.622Z,7.57
2018-08-23T04:46:38.130Z,7.20
2018-08-23T04:49:07.641Z,7.50
2018-08-23T04:51:37.810Z,7.23
2018-08-23T04:54:06.515Z,6.93
2018-08-23T04:56:34.923Z,7.30
2018-08-23T04:59:03.555Z,7.17
2018-08-23T05:01:31.988Z,7.30
2018-08-23T05:04:00.461Z,7.97
2018-08-23T05:06:28.893Z,7.37
2018-08-23T05:08:57.284Z,8.00
2018-08-23T05:11:25.701Z,6.83
2018-08-23T05:13:54.106Z,7.17
2018-08-23T05:16:22.568Z,7.73
2018-08-23T05:18:51.230Z,7.20
2018-08-23T05:21:19.602Z,7.90
2018-08-23T05:23:47.977Z,7.83
2018-08-23T05:26:17.722Z,7.60
2018-08-23T05:28:59.059Z,7.97
2018-08-23T05:31:28.642Z,7.70
2018-08-23T05:33:59.388Z,8.17
2018-08-23T05:36:27.875Z,8.03
2018-08-23T05:38:56.286Z,8.10
2018-08-23T05:41:24.712Z,7.60
2018-08-23T05:44:02.042Z,7.70
2018-08-23T05:46:34.940Z,7.70
2018-08-23T05:49:03.527Z,7.07
2018-08-23T05:51:33.031Z,7.47
2018-08-23T05:54:01.450Z,7.77
2018-08-23T05:56:29.918Z,7.23
2018-08-23T05:59:03.802Z,7.07
2018-08-23T06:01:32.171Z,7.63
2018-08-23T06:04:00.662Z,7.40
2018-08-23T06:06:30.019Z,6.70
2018-08-23T06:09:00.824Z,7.27
2018-08-23T06:11:29.432Z,7.17
2018-08-23T06:13:57.798Z,6.30
2018-08-23T06:16:26.344Z,7.27
2018-08-23T06:18:54.861Z,7.20
2018-08-23T06:21:23.305Z,7.73
2018-08-23T06:23:53.062Z,7.80
2018-08-23T06:26:34.264Z,7.30
2018-08-23T06:29:02.724Z,7.78
2018-08-23T06:31:31.265Z,7.40
2018-08-23T06:33:59.807Z,7.03
2018-08-23T06:36:28.212Z,7.73
2018-08-23T06:39:01.841Z,7.67
2018-08-23T06:41:30.445Z,7.87
2018-08-23T06:43:58.893Z,7.40
2018-08-23T06:46:27.405Z,7.03
2018-08-23T06:48:56.227Z,6.80
2018-08-23T06:51:24.659Z,6.97
2018-08-23T06:53:55.250Z,6.75
2018-08-23T06:56:23.647Z,6.35
2018-08-23T06:58:52.276Z,7.08
2018-08-23T07:01:33.980Z,6.72
2018-08-23T07:04:07.760Z,6.05
2018-08-23T07:06:36.896Z,6.20
2018-08-23T07:09:13.367Z,6.15
2018-08-23T07:11:41.924Z,6.78
2018-08-23T07:14:11.958Z,6.08
2018-08-23T07:16:41.276Z,6.50
2018-08-23T07:19:24.454Z,5.55
2018-08-23T07:21:53.842Z,6.05
2018-08-23T07:24:39.081Z,5.58
2018-08-23T07:27:09.300Z,5.72
2018-08-23T07:29:37.931Z,5.55
2018-08-23T07:32:07.708Z,6.00
2018-08-23T07:34:36.728Z,6.10
2018-08-23T07:37:14.258Z,5.87
2018-08-23T07:39:47.079Z,5.78
2018-08-23T07:42:15.499Z,6.22
2018-08-23T07:44:44.024Z,5.70
2018-08-23T07:47:12.452Z,6.35
2018-08-23T07:49:40.949Z,6.10
2018-08-23T07:52:09.440Z,5.60
2018-08-23T07:54:37.817Z,5.47
2018-08-23T07:57:06.376Z,5.85
2018-08-23T07:59:34.855Z,5.75
2018-08-23T08:02:03.303Z,5.22
2018-08-23T08:04:31.824Z,5.83
2018-08-23T08:07:00.329Z,5.47
2018-08-23T08:09:28.747Z,4.97
2018-08-23T08:12:01.895Z,5.85
2018-08-23T08:14:38.590Z,6.00
2018-08-23T08:17:09.022Z,5.30
2018-08-23T08:19:39.812Z,5.35
2018-08-23T08:22:08.207Z,5.25
2018-08-23T08:24:36.726Z,5.65
2018-08-23T08:27:05.282Z,5.50
2018-08-23T08:29:38.773Z,5.03
2018-08-23T08:32:08.602Z,4.83
2018-08-23T08:34:39.678Z,5.10
2018-08-23T08:37:08.116Z,5.25
2018-08-23T08:39:36.586Z,5.58
2018-08-23T08:42:05.111Z,5.25
2018-08-23T08:44:33.568Z,4.80
2018-08-23T08:47:01.984Z,5.33
2018-08-23T08:49:31.336Z,5.47
2018-08-23T08:51:59.726Z,5.15
2018-08-23T08:54:28.208Z,4.78
2018-08-23T08:56:56.954Z,5.45
2018-08-23T08:59:30.304Z,5.17
2018-08-23T09:01:59.180Z,5.08
2018-08-23T09:04:33.047Z,5.03
2018-08-23T09:07:01.497Z,5.47
2018-08-23T09:09:32.836Z,5.12
2018-08-23T09:12:03.259Z,4.87
2018-08-23T09:14:31.701Z,4.75
2018-08-23T09:17:00.982Z,4.60
2018-08-23T09:20:04.707Z,5.20
2018-08-23T09:22:37.364Z,5.37
2018-08-23T09:25:08.270Z,4.92
2018-08-23T09:27:36.703Z,5.50
2018-08-23T09:30:09.492Z,5.30
2018-08-23T09:32:37.930Z,4.58
2018-08-23T09:35:06.775Z,4.90
2018-08-23T09:37:38.506Z,4.80
2018-08-23T09:40:07.762Z,4.62
2018-08-23T09:42:37.040Z,5.28
2018-08-23T09:45:09.002Z,4.58
2018-08-23T09:47:37.466Z,4.87
2018-08-23T09:50:06.576Z,4.83
2018-08-23T09:52:42.273Z,4.85
2018-08-23T09:55:12.224Z,5.55
2018-08-23T09:57:40.895Z,4.72
2018-08-23T10:00:10.711Z,4.28
2018-08-23T10:02:44.537Z,4.22
2018-08-23T10:06:18.058Z,4.78
2018-08-23T10:08:53.589Z,4.85
2018-08-23T10:11:27.572Z,4.53
2018-08-23T10:14:01.349Z,4.55
2018-08-23T10:16:35.006Z,4.80
2018-08-23T10:19:09.634Z,4.62
2018-08-23T10:21:43.531Z,4.87
2018-08-23T10:24:17.531Z,4.80
2018-08-23T10:26:46.257Z,4.37
2018-08-23T10:29:14.646Z,4.60
2018-08-23T10:31:42.989Z,4.35
2018-08-23T10:34:11.422Z,4.65
2018-08-23T10:36:39.794Z,4.10
2018-08-23T10:39:10.999Z,4.20
2018-08-23T10:41:39.437Z,4.33
2018-08-23T10:44:07.904Z,4.37
2018-08-23T10:46:41.524Z,3.87
2018-08-23T10:49:09.904Z,4.20
2018-08-23T10:51:38.254Z,4.08
2018-08-23T10:54:06.695Z,4.40
2018-08-23T10:56:35.094Z,3.90
2018-08-23T10:59:03.504Z,4.10
2018-08-23T11:01:31.964Z,4.10
2018-08-23T11:04:05.592Z,4.03
2018-08-23T11:06:34.528Z,3.92
2018-08-23T11:09:08.438Z,4.03
2018-08-23T11:11:37.738Z,3.65
2018-08-23T11:14:11.815Z,4.22
2018-08-23T11:16:45.728Z,4.25
2018-08-23T11:19:19.684Z,4.47
2018-08-23T11:21:48.085Z,4.20
2018-08-23T11:24:16.438Z,3.95
2018-08-23T11:26:44.805Z,3.98
2018-08-23T11:29:13.251Z,3.98
2018-08-23T11:31:41.635Z,3.90
2018-08-23T11:34:10.176Z,4.00
2018-08-23T11:36:38.623Z,4.08
2018-08-23T11:39:08.548Z,3.70
2018-08-23T11:41:37.146Z,3.60
2018-08-23T11:44:05.644Z,3.70
2018-08-23T11:46:34.117Z,3.27
2018-08-23T11:49:02.572Z,3.65
2018-08-23T11:51:30.975Z,3.35
2018-08-23T11:53:59.446Z,3.50
2018-08-23T11:56:27.950Z,3.30
2018-08-23T11:58:56.571Z,3.40
2018-08-23T12:01:25.024Z,3.50
2018-08-23T12:03:53.390Z,3.60
2018-08-23T12:06:21.866Z,3.12
2018-08-23T12:08:50.338Z,3.40
2018-08-23T12:11:18.838Z,3.33
2018-08-23T12:13:49.203Z,2.98
2018-08-23T12:16:17.835Z,3.52
2018-08-23T12:18:46.523Z,3.00
2018-08-23T12:21:14.942Z,3.37
2018-08-23T12:23:43.485Z,3.17
2018-08-23T12:26:11.980Z,3.20
2018-08-23T12:28:45.847Z,3.42
2018-08-23T12:31:14.362Z,3.58
2018-08-23T12:33:42.783Z,3.47
2018-08-23T12:36:11.279Z,3.27
2018-08-23T12:38:45.229Z,3.25
2018-08-23T12:41:19.164Z,3.10
2018-08-23T12:43:49.689Z,3.30
2018-08-23T12:46:18.320Z,3.40
2018-08-23T12:48:47.177Z,3.10
2018-08-23T12:51:15.601Z,3.70
2018-08-23T12:53:44.258Z,3.40
2018-08-23T12:56:12.835Z,3.22
2018-08-23T12:58:41.342Z,2.83
2018-08-23T13:01:09.767Z,3.30
2018-08-23T13:03:38.221Z,3.37
2018-08-23T13:06:06.745Z,3.40
2018-08-23T13:08:35.242Z,3.30
2018-08-23T13:11:03.701Z,3.10
2018-08-23T13:13:32.102Z,3.20
2018-08-23T13:16:00.648Z,3.45
2018-08-23T13:18:29.115Z,3.08
2018-08-23T13:20:57.491Z,3.47
2018-08-23T13:23:25.918Z,3.67
2018-08-23T13:25:57.506Z,3.40
2018-08-23T13:28:27.152Z,3.10
2018-08-23T13:30:55.745Z,3.30
2018-08-23T13:33:25.307Z,3.72
2018-08-23T13:35:53.721Z,3.47
2018-08-23T13:38:22.113Z,3.50
2018-08-23T13:40:50.552Z,3.05
2018-08-23T13:43:19.096Z,3.43
2018-08-23T13:45:47.528Z,3.60
2018-08-23T13:48:16.035Z,3.20
2018-08-23T13:50:44.568Z,3.37
2018-08-23T13:53:13.231Z,3.13
2018-08-23T13:55:41.677Z,3.20
2018-08-23T13:58:10.372Z,3.37
2018-08-23T14:00:41.055Z,3.50
2018-08-23T14:03:10.431Z,3.77
2018-08-23T14:05:39.919Z,3.50
2018-08-23T14:08:08.633Z,3.95
2018-08-23T14:10:37.035Z,4.20
2018-08-23T14:13:05.830Z,4.33
2018-08-23T14:15:39.699Z,4.35
2018-08-23T14:18:08.361Z,4.40
2018-08-23T14:20:36.848Z,4.20
2018-08-23T14:23:05.242Z,3.90
2018-08-23T14:25:33.659Z,3.72
2018-08-23T14:28:02.044Z,3.80
2018-08-23T14:30:30.536Z,4.17
2018-08-23T14:32:58.959Z,3.98
2018-08-23T14:35:27.437Z,4.03
2018-08-23T14:37:55.934Z,3.83
2018-08-23T14:40:24.414Z,3.90
2018-08-23T14:42:52.869Z,4.00
2018-08-23T14:45:26.567Z,4.20
2018-08-23T14:48:00.412Z,3.60
2018-08-23T14:50:28.963Z,3.77
2018-08-23T14:52:57.559Z,4.50
2018-08-23T14:55:31.461Z,4.05
2018-08-23T14:58:00.075Z,4.00
2018-08-23T15:00:28.672Z,4.58
2018-08-23T15:02:57.211Z,4.10
2018-08-23T15:05:25.602Z,4.30
2018-08-23T15:07:54.059Z,4.20
2018-08-23T15:10:22.541Z,4.50
2018-08-23T15:12:50.943Z,4.15
2018-08-23T15:15:23.718Z,4.50
2018-08-23T15:17:52.224Z,4.58
2018-08-23T15:20:20.606Z,4.37
2018-08-23T15:22:49.096Z,4.42
2018-08-23T15:25:17.541Z,4.10
2018-08-23T15:27:46.011Z,4.67
2018-08-23T15:30:14.498Z,4.22
2018-08-23T15:32:42.940Z,4.70
2018-08-23T15:35:11.292Z,4.50
2018-08-23T15:37:39.738Z,4.37
2018-08-23T15:40:08.845Z,4.28
2018-08-23T15:42:37.310Z,4.05
2018-08-23T15:45:05.942Z,3.90
2018-08-23T15:47:34.455Z,4.20
2018-08-23T15:50:02.963Z,4.03
2018-08-23T15:52:31.369Z,3.83
2018-08-23T15:54:59.890Z,3.47
2018-08-23T15:57:28.332Z,4.65
2018-08-23T15:59:57.005Z,5.10
2018-08-23T16:02:25.590Z,5.03
2018-08-23T16:04:54.168Z,6.12
2018-08-23T16:07:22.603Z,5.58
2018-08-23T16:09:51.135Z,5.58
2018-08-23T16:12:19.523Z,4.67
2018-08-23T16:14:47.956Z,4.58
2018-08-23T16:17:21.801Z,5.42
2018-08-23T16:19:55.704Z,5.12
2018-08-23T16:22:24.223Z,5.37
2018-08-23T16:24:52.703Z,5.20
2018-08-23T16:27:21.247Z,5.03
2018-08-23T16:29:50.948Z,4.83
2018-08-23T16:32:24.683Z,5.28
2018-08-23T16:34:53.420Z,5.12
2018-08-23T16:37:21.933Z,5.10
2018-08-23T16:39:50.326Z,5.03
2018-08-23T16:42:18.972Z,5.10
2018-08-23T16:44:47.687Z,5.05
2018-08-23T16:47:16.200Z,5.10
2018-08-23T16:49:44.590Z,5.30
2018-08-23T16:52:13.009Z,4.95
2018-08-23T16:54:41.499Z,5.10
2018-08-23T16:57:10.096Z,5.28
2018-08-23T16:59:38.608Z,5.10
2018-08-23T17:02:07.307Z,5.20
2018-08-23T17:04:41.084Z,5.10
2018-08-23T17:07:09.561Z,5.58
2018-08-23T17:09:38.108Z,5.53
2018-08-23T17:12:06.643Z,5.00
2018-08-23T17:14:35.136Z,5.37
2018-08-23T17:17:09.209Z,4.92
2018-08-23T17:19:37.689Z,4.92
2018-08-23T17:22:06.215Z,5.10
2018-08-23T17:24:34.866Z,5.35
2018-08-23T17:27:03.342Z,5.35
2018-08-23T17:29:31.858Z,4.80
2018-08-23T17:32:00.434Z,5.10
2018-08-23T17:34:29.014Z,4.78
2018-08-23T17:36:57.396Z,4.90
2018-08-23T17:39:25.855Z,5.00
2018-08-23T17:41:54.298Z,4.78
2018-08-23T17:44:22.821Z,4.75
2018-08-23T17:46:51.599Z,5.20
2018-08-23T17:49:19.967Z,5.40
2018-08-23T17:51:50.411Z,5.17
2018-08-23T17:54:19.115Z,5.22
2018-08-23T17:56:47.581Z,5.12
2018-08-23T17:59:16.044Z,5.60
2018-08-23T18:01:44.457Z,5.72
2018-08-23T18:04:13.026Z,5.17
2018-08-23T18:06:41.690Z,5.22
2018-08-23T18:09:11.986Z,5.30
2018-08-23T18:11:40.531Z,5.30
2018-08-23T18:14:09.127Z,5.60
2018-08-23T18:16:42.907Z,5.42
2018-08-23T18:19:11.870Z,4.97
2018-08-23T18:21:41.502Z,5.03
2018-08-23T18:24:10.009Z,5.37
2018-08-23T18:26:42.699Z,5.25
2018-08-23T18:29:11.288Z,5.90
2018-08-23T18:31:39.787Z,5.35
2018-08-23T18:34:08.401Z,5.15
2018-08-23T18:36:36.911Z,5.80
2018-08-23T18:39:07.794Z,5.60
2018-08-23T18:41:36.247Z,5.35
2018-08-23T18:44:04.614Z,5.37
2018-08-23T18:46:33.094Z,5.60
2018-08-23T18:49:01.829Z,5.70
2018-08-23T18:51:31.421Z,5.45
2018-08-23T18:54:00.442Z,5.67
2018-08-23T18:56:29.679Z,5.30
2018-08-23T18:58:58.582Z,5.20
2018-08-23T19:01:29.316Z,5.80
2018-08-23T19:04:01.389Z,5.85
2018-08-23T19:06:38.645Z,6.40
2018-08-23T19:09:12.063Z,5.50
2018-08-23T19:11:41.666Z,5.83
2018-08-23T19:14:10.445Z,6.00
2018-08-23T19:16:44.504Z,6.47
2018-08-23T19:19:13.944Z,6.47
2018-08-23T19:21:42.663Z,6.28
2018-08-23T19:24:11.186Z,6.03
2018-08-23T19:26:39.565Z,6.17
2018-08-23T19:29:08.111Z,6.37
2018-08-23T19:31:36.488Z,10.80
2018-08-23T19:34:04.995Z,10.50
2018-08-23T19:36:33.495Z,6.65
2018-08-23T19:39:02.077Z,5.85
2018-08-23T19:41:30.714Z,5.83
2018-08-23T19:43:59.110Z,5.62
2018-08-23T19:46:33.206Z,5.60
2018-08-23T19:49:07.133Z,5.65
2018-08-23T19:51:35.576Z,5.83
2018-08-23T19:54:04.022Z,5.95
2018-08-23T19:56:32.959Z,6.10
2018-08-23T19:59:01.457Z,5.53
2018-08-23T20:01:29.908Z,5.78
2018-08-23T20:03:58.315Z,5.50
2018-08-23T20:06:26.828Z,5.75
2018-08-23T20:08:55.256Z,6.23
2018-08-23T20:11:23.672Z,5.83
2018-08-23T20:13:52.042Z,6.70
2018-08-23T20:16:20.467Z,6.33
2018-08-23T20:18:48.923Z,5.80
2018-08-23T20:21:17.337Z,6.08
2018-08-23T20:23:45.963Z,5.50
2018-08-23T20:26:14.511Z,5.62
2018-08-23T20:28:43.001Z,5.83
2018-08-23T20:31:11.504Z,6.25
2018-08-23T20:33:39.967Z,6.37
2018-08-23T20:36:08.421Z,6.05
2018-08-23T20:38:36.891Z,6.15
2018-08-23T20:41:05.473Z,6.22
2018-08-23T20:43:33.908Z,6.87
2018-08-23T20:46:02.373Z,6.92
2018-08-23T20:48:30.883Z,6.37
2018-08-23T20:50:59.408Z,6.58
2018-08-23T20:53:27.814Z,6.30
2018-08-23T20:55:56.368Z,5.58
2018-08-23T20:58:24.812Z,7.95
2018-08-23T21:00:53.210Z,6.55
2018-08-23T21:03:21.652Z,6.00
2018-08-23T21:05:50.353Z,5.67
2018-08-23T21:08:18.751Z,5.80
2018-08-23T21:10:47.215Z,5.92
2018-08-23T21:13:15.623Z,6.35
2018-08-23T21:15:44.047Z,5.97
2018-08-23T21:18:12.602Z,6.10
2018-08-23T21:20:41.830Z,5.92
2018-08-23T21:23:10.443Z,6.37
2018-08-23T21:25:38.798Z,6.28
2018-08-23T21:28:07.408Z,6.08
2018-08-23T21:30:36.813Z,5.78
2018-08-23T21:33:05.250Z,6.05
2018-08-23T21:35:33.812Z,5.20
2018-08-23T21:38:02.359Z,6.50
2018-08-23T21:40:30.868Z,5.80
2018-08-23T21:42:59.287Z,5.78
2018-08-23T21:45:27.711Z,5.87
2018-08-23T21:47:56.123Z,6.53
2018-08-23T21:50:24.575Z,6.10
2018-08-23T21:52:53.156Z,6.00
2018-08-23T21:55:25.857Z,5.83
2018-08-23T21:57:54.514Z,6.10
2018-08-23T22:00:22.897Z,6.15
2018-08-23T22:02:51.370Z,5.72
2018-08-23T22:05:19.885Z,5.92
2018-08-23T22:07:48.287Z,5.50
2018-08-23T22:10:17.132Z,6.10
2018-08-23T22:12:45.481Z,6.03
2018-08-23T22:15:14.026Z,5.87
2018-08-23T22:17:42.403Z,6.17
2018-08-23T22:20:10.873Z,5.72
2018-08-23T22:22:39.329Z,6.33
2018-08-23T22:25:07.806Z,5.45
2018-08-23T22:27:36.247Z,6.20
2018-08-23T22:30:04.801Z,6.37
2018-08-23T22:32:33.331Z,6.30
2018-08-23T22:35:01.713Z,6.28
2018-08-23T22:37:33.291Z,6.53
2018-08-23T22:40:01.669Z,5.58
2018-08-23T22:42:30.491Z,6.20
2018-08-23T22:44:58.988Z,6.03
2018-08-23T22:47:27.527Z,6.75
2018-08-23T22:49:55.935Z,5.95
2018-08-23T22:52:24.394Z,6.60
2018-08-23T22:54:52.788Z,5.95
2018-08-23T22:57:21.372Z,6.28
2018-08-23T22:59:49.763Z,6.70
2018-08-23T23:02:23.543Z,5.97
2018-08-23T23:04:51.917Z,6.47
2018-08-23T23:07:20.291Z,5.87
2018-08-23T23:09:48.685Z,5.70
2018-08-23T23:12:17.071Z,6.10
2018-08-23T23:14:45.542Z,5.62
2018-08-23T23:17:14.008Z,6.15
2018-08-23T23:19:42.600Z,5.95
2018-08-23T23:22:11.209Z,6.90
2018-08-23T23:24:45.159Z,6.45
2018-08-23T23:27:13.585Z,5.97
2018-08-23T23:29:42.032Z,5.70
2018-08-23T23:32:10.542Z,6.40
2018-08-23T23:34:38.945Z,6.37
2018-08-23T23:37:07.479Z,6.37
2018-08-23T23:39:36.108Z,6.10
2018-08-23T23:42:04.671Z,6.25
2018-08-23T23:44:33.122Z,5.70
2018-08-23T23:47:01.529Z,5.50
2018-08-23T23:49:29.901Z,6.17
2018-08-23T23:51:58.322Z,5.78
2018-08-23T23:54:26.784Z,5.58
2018-08-23T23:56:55.195Z,5.95
2018-08-23T23:59:23.775Z,5.78
